createdAt,value
2023-02-06T00:04:12.872Z,6.03
2023-02-06T00:10:17.401Z,5.80
2023-02-06T00:16:22.072Z,5.93
2023-02-06T00:22:27.302Z,6.53
2023-02-06T00:28:31.829Z,6.30
2023-02-06T00:34:36.690Z,6.00
2023-02-06T00:40:41.235Z,6.50
2023-02-06T00:46:45.907Z,6.77
2023-02-06T00:52:50.603Z,6.40
2023-02-06T00:58:55.159Z,6.30
2023-02-06T01:04:59.894Z,7.37
2023-02-06T01:11:04.408Z,6.80
2023-02-06T01:17:18.288Z,6.57
2023-02-06T01:23:25.913Z,6.07
2023-02-06T01:29:30.520Z,5.97
2023-02-06T01:35:35.263Z,6.20
2023-02-06T01:41:39.913Z,6.77
2023-02-06T01:47:46.927Z,6.60
2023-02-06T01:53:51.658Z,6.73
2023-02-06T01:59:58.636Z,6.30
2023-02-06T02:06:04.618Z,7.20
2023-02-06T02:12:10.654Z,7.23
2023-02-06T02:18:52.317Z,6.73
2023-02-06T02:25:02.454Z,6.70
2023-02-06T02:31:13.009Z,6.40
2023-02-06T02:37:35.214Z,6.30
2023-02-06T02:44:10.650Z,8.37
2023-02-06T02:50:20.612Z,5.37
2023-02-06T02:56:26.393Z,6.70
2023-02-06T03:02:43.162Z,6.60
2023-02-06T03:09:13.138Z,6.60
2023-02-06T03:15:32.846Z,6.23
2023-02-06T03:21:40.227Z,5.47
2023-02-06T03:27:46.056Z,6.07
2023-02-06T03:33:53.237Z,3.07
2023-02-06T03:39:57.812Z,4.33
2023-02-06T03:46:12.502Z,5.57
2023-02-06T03:52:32.018Z,5.10
2023-02-06T03:58:38.821Z,4.10
2023-02-06T04:04:44.075Z,5.10
2023-02-06T04:10:48.685Z,4.57
2023-02-06T04:16:53.395Z,3.87
2023-02-06T04:22:57.923Z,4.50
2023-02-06T04:29:02.448Z,5.20
2023-02-06T04:35:07.085Z,4.40
2023-02-06T04:41:12.314Z,4.70
2023-02-06T04:47:16.850Z,3.37
2023-02-06T04:53:21.432Z,3.87
2023-02-06T04:59:25.982Z,4.30
2023-02-06T05:05:30.537Z,4.27
2023-02-06T05:11:35.064Z,3.50
2023-02-06T05:17:39.557Z,4.07
2023-02-06T05:23:44.095Z,4.37
2023-02-06T05:29:48.655Z,4.13
2023-02-06T05:35:53.196Z,4.03
2023-02-06T05:41:57.730Z,4.17
2023-02-06T05:48:02.257Z,4.33
2023-02-06T05:54:06.790Z,4.20
2023-02-06T06:00:11.371Z,4.77
2023-02-06T06:06:16.002Z,5.00
2023-02-06T06:12:20.647Z,7.57
2023-02-06T06:18:25.222Z,5.90
2023-02-06T06:24:29.887Z,6.70
2023-02-06T06:30:35.751Z,5.90
2023-02-06T06:36:40.787Z,6.67
2023-02-06T06:42:45.300Z,7.40
2023-02-06T06:48:50.208Z,10.17
2023-02-06T06:54:54.871Z,9.27
2023-02-06T07:00:59.579Z,6.80
2023-02-06T07:07:17.343Z,8.67
2023-02-06T07:13:21.988Z,9.20
2023-02-06T07:19:26.517Z,8.70
2023-02-06T07:25:31.265Z,10.17
2023-02-06T07:31:35.869Z,8.40
2023-02-06T07:37:40.450Z,9.30
2023-02-06T07:43:44.969Z,8.90
2023-02-06T07:49:49.573Z,10.27
2023-02-06T07:55:54.128Z,8.40
2023-02-06T08:01:58.704Z,10.00
2023-02-06T08:08:03.399Z,9.50
2023-02-06T08:14:08.263Z,10.40
2023-02-06T08:20:12.772Z,8.40
2023-02-06T08:26:17.324Z,9.20
2023-02-06T08:32:27.832Z,7.57
2023-02-06T08:38:32.474Z,10.37
2023-02-06T08:44:37.013Z,10.13
2023-02-06T08:50:41.630Z,11.60
2023-02-06T08:56:46.215Z,11.77
2023-02-06T09:02:51.209Z,12.60
2023-02-06T09:08:55.819Z,10.40
2023-02-06T09:15:02.284Z,13.10
2023-02-06T09:21:07.179Z,11.87
2023-02-06T09:27:11.692Z,12.60
2023-02-06T09:33:16.330Z,12.83
2023-02-06T09:39:21.022Z,12.47
2023-02-06T09:45:32.205Z,13.40
2023-02-06T09:51:45.454Z,12.83
2023-02-06T09:58:20.889Z,14.07
2023-02-06T10:04:28.602Z,14.93
2023-02-06T10:10:40.343Z,13.50
2023-02-06T10:16:51.674Z,14.83
2023-02-06T10:23:06.155Z,12.87
2023-02-06T10:29:26.781Z,15.93
2023-02-06T10:35:39.687Z,14.07
2023-02-06T10:41:53.031Z,12.03
2023-02-06T10:47:58.327Z,12.80
2023-02-06T10:54:30.342Z,11.90
2023-02-06T11:00:43.230Z,13.67
2023-02-06T11:06:48.205Z,12.93
2023-02-06T11:12:53.202Z,11.77
2023-02-06T11:18:59.276Z,11.83
2023-02-06T11:25:18.182Z,11.67
2023-02-06T11:31:39.296Z,10.30
2023-02-06T11:37:44.756Z,11.90
2023-02-06T11:43:51.599Z,10.90
2023-02-06T11:49:59.355Z,10.47
2023-02-06T11:56:07.654Z,13.30
2023-02-06T12:02:26.103Z,13.20
2023-02-06T12:08:47.878Z,12.47
2023-02-06T12:14:57.761Z,13.03
2023-02-06T12:21:18.621Z,13.83
2023-02-06T12:27:26.891Z,12.27
2023-02-06T12:33:41.226Z,12.87
2023-02-06T12:39:51.340Z,14.43
2023-02-06T12:46:04.687Z,15.30
2023-02-06T12:52:19.915Z,13.17
2023-02-06T12:58:31.945Z,15.90
2023-02-06T13:04:46.873Z,15.13
2023-02-06T13:11:06.460Z,13.27
2023-02-06T13:17:12.055Z,14.50
2023-02-06T13:23:16.612Z,16.57
2023-02-06T13:29:25.170Z,15.97
2023-02-06T13:35:30.184Z,16.23
2023-02-06T13:41:34.784Z,15.90
2023-02-06T13:47:57.624Z,14.67
2023-02-06T13:54:05.339Z,13.20
2023-02-06T14:00:23.319Z,12.47
2023-02-06T14:06:51.888Z,13.50
2023-02-06T14:13:12.358Z,14.57
2023-02-06T14:19:25.695Z,12.70
2023-02-06T14:25:41.181Z,13.97
2023-02-06T14:32:03.866Z,12.83
2023-02-06T14:38:20.411Z,11.60
2023-02-06T14:44:27.900Z,11.27
2023-02-06T14:50:42.064Z,11.00
2023-02-06T14:56:47.744Z,9.40
2023-02-06T15:02:54.551Z,9.87
2023-02-06T15:09:05.546Z,11.50
2023-02-06T15:15:24.458Z,18.63
2023-02-06T15:21:32.514Z,11.37
2023-02-06T15:27:48.970Z,9.00
2023-02-06T15:33:55.597Z,10.87
2023-02-06T15:40:04.322Z,10.33
2023-02-06T15:46:09.788Z,10.57
2023-02-06T15:52:27.959Z,11.07
2023-02-06T15:58:34.934Z,11.70
2023-02-06T16:04:44.365Z,11.67
2023-02-06T16:11:35.843Z,12.63
2023-02-06T16:17:42.666Z,11.67
2023-02-06T16:23:47.291Z,10.50
2023-02-06T16:30:03.169Z,11.50
2023-02-06T16:36:07.971Z,12.97
2023-02-06T16:42:37.306Z,11.10
2023-02-06T16:48:41.894Z,10.97
2023-02-06T16:54:47.364Z,10.77
2023-02-06T17:00:52.838Z,11.30
2023-02-06T17:06:57.395Z,10.60
2023-02-06T17:13:01.989Z,10.97
2023-02-06T17:19:07.008Z,12.27
2023-02-06T17:25:11.644Z,12.83
2023-02-06T17:31:21.818Z,13.67
2023-02-06T17:37:26.552Z,14.53
2023-02-06T17:43:32.837Z,14.20
2023-02-06T17:49:40.179Z,13.23
2023-02-06T17:55:45.232Z,12.67
2023-02-06T18:01:51.886Z,16.50
2023-02-06T18:07:56.674Z,15.10
2023-02-06T18:14:01.221Z,13.43
2023-02-06T18:20:07.041Z,13.63
2023-02-06T18:26:14.400Z,14.47
2023-02-06T18:32:46.010Z,13.87
2023-02-06T18:38:50.792Z,14.13
2023-02-06T18:44:55.398Z,16.63
2023-02-06T18:51:00.848Z,16.33
2023-02-06T18:57:05.439Z,15.50
2023-02-06T19:03:10.374Z,15.70
2023-02-06T19:09:14.931Z,15.17
2023-02-06T19:15:20.650Z,16.67
2023-02-06T19:21:25.204Z,18.37
2023-02-06T19:27:31.150Z,16.57
2023-02-06T19:33:35.708Z,17.23
2023-02-06T19:39:40.457Z,17.53
2023-02-06T19:45:45.067Z,17.23
2023-02-06T19:51:49.699Z,19.57
2023-02-06T19:57:54.568Z,19.40
2023-02-06T20:03:59.126Z,18.90
2023-02-06T20:10:04.324Z,23.37
2023-02-06T20:16:09.250Z,19.63
2023-02-06T20:22:25.289Z,21.03
2023-02-06T20:28:30.197Z,19.53
2023-02-06T20:34:34.737Z,21.87
2023-02-06T20:40:44.358Z,22.40
2023-02-06T20:46:49.254Z,21.30
2023-02-06T20:52:54.351Z,19.57
2023-02-06T20:58:59.596Z,19.73
2023-02-06T21:05:08.953Z,19.87
2023-02-06T21:11:13.639Z,22.37
2023-02-06T21:17:18.249Z,22.00
2023-02-06T21:23:25.949Z,24.40
2023-02-06T21:29:30.570Z,29.93
2023-02-06T21:35:36.889Z,26.77
2023-02-06T21:41:41.432Z,24.73
2023-02-06T21:47:46.068Z,25.13
2023-02-06T21:53:50.793Z,24.27
2023-02-06T21:59:55.565Z,24.73
2023-02-06T22:06:00.057Z,26.07
2023-02-06T22:12:08.534Z,24.43
2023-02-06T22:18:13.111Z,24.10
2023-02-06T22:24:17.633Z,26.33
2023-02-06T22:30:22.257Z,26.73
2023-02-06T22:36:28.355Z,26.00
2023-02-06T22:42:33.456Z,27.37
2023-02-06T22:48:40.042Z,25.73
2023-02-06T22:54:44.824Z,25.33
2023-02-06T23:00:49.512Z,24.80
2023-02-06T23:06:54.092Z,23.50
2023-02-06T23:12:59.675Z,28.37
2023-02-06T23:19:04.630Z,23.47
2023-02-06T23:25:11.206Z,25.40
2023-02-06T23:31:16.607Z,21.00
2023-02-06T23:37:26.015Z,19.73
2023-02-06T23:43:32.189Z,23.47
2023-02-06T23:49:37.374Z,23.20
2023-02-06T23:55:42.026Z,16.93
